Time;durP1;ratioP1;P1;durP2;ratioP2;P2;SDS_P1;SDS_P2;PMS_P1;PMS_P2;Temp;Humidity;BMP_temperature;BMP_pressure;BME280_temperature;BME280_humidity;BME280_pressure;Samples;Min_cycle;Max_cycle;Signal;HPM_P1;HPM_P2
2023/01/21 00:00:39;;;;;;;39.47;15.88;;;-2.00;77.00;;;;;;5021248;28;20156;-60
2023/01/21 00:03:05;;;;;;;54.03;16.75;;;-2.10;76.90;;;;;;5019711;28;20489;-61
2023/01/21 00:05:30;;;;;;;123.90;18.70;;;-2.20;77.00;;;;;;5021156;28;20040;-61
2023/01/21 00:07:56;;;;;;;44.28;16.80;;;-2.30;77.10;;;;;;5022385;28;20037;-61
2023/01/21 00:10:21;;;;;;;43.65;18.02;;;-2.50;77.30;;;;;;5026310;28;20539;-59
2023/01/21 00:12:47;;;;;;;30.60;15.75;;;-2.60;77.60;;;;;;5022424;28;20040;-61
2023/01/21 00:15:13;;;;;;;27.05;15.30;;;-2.70;78.00;;;;;;5026506;28;20057;-59
2023/01/21 00:17:38;;;;;;;39.05;14.77;;;-2.80;78.40;;;;;;5024130;28;20598;-61
2023/01/21 00:20:05;;;;;;;66.03;15.60;;;-2.80;78.70;;;;;;5024537;28;20087;-61
2023/01/21 00:22:31;;;;;;;46.50;15.40;;;-2.80;78.70;;;;;;5021753;28;20076;-62
2023/01/21 00:24:57;;;;;;;28.35;15.15;;;-2.80;78.70;;;;;;5025317;28;20233;-62
2023/01/21 00:27:23;;;;;;;28.45;15.45;;;-2.90;78.60;;;;;;5024708;28;20045;-62
2023/01/21 00:29:48;;;;;;;28.15;15.07;;;-2.90;79.00;;;;;;5023989;28;20033;-62
2023/01/21 00:32:14;;;;;;;27.95;15.30;;;-2.90;79.30;;;;;;5020671;28;20040;-56
2023/01/21 00:34:40;;;;;;;29.80;15.75;;;-2.90;79.60;;;;;;5040224;28;20381;-60
2023/01/21 00:37:06;;;;;;;26.50;14.48;;;-2.80;79.90;;;;;;5024352;28;20037;-59
2023/01/21 00:39:32;;;;;;;28.50;15.23;;;-2.80;80.00;;;;;;5023128;28;20045;-60
2023/01/21 00:41:58;;;;;;;31.02;15.63;;;-2.70;80.00;;;;;;5023471;28;20045;-61
2023/01/21 00:44:24;;;;;;;29.25;15.10;;;-2.70;80.00;;;;;;5023343;28;20041;-59
2023/01/21 00:46:49;;;;;;;30.20;15.73;;;-2.60;80.00;;;;;;5023673;28;20073;-58
2023/01/21 00:49:15;;;;;;;31.48;16.33;;;-2.60;80.00;;;;;;5024592;28;20036;-60
2023/01/21 00:51:40;;;;;;;35.38;17.05;;;-2.50;80.10;;;;;;5026169;28;20163;-59
2023/01/21 00:54:06;;;;;;;34.10;16.65;;;-2.50;80.00;;;;;;5026209;28;20030;-59
2023/01/21 00:56:31;;;;;;;46.80;17.25;;;-2.40;80.10;;;;;;5024094;28;20057;-60
2023/01/21 00:58:57;;;;;;;38.35;16.75;;;-2.30;80.10;;;;;;5019701;28;20030;-57
2023/01/21 01:01:25;;;;;;;39.60;17.17;;;-2.20;80.20;;;;;;5020603;28;20091;-60
2023/01/21 01:03:51;;;;;;;69.20;19.10;;;-2.20;80.10;;;;;;5020002;28;20200;-60
2023/01/21 01:06:19;;;;;;;81.40;19.80;;;-2.10;80.20;;;;;;5021061;28;20041;-60
2023/01/21 01:08:46;;;;;;;48.17;19.25;;;-2.10;80.20;;;;;;5021553;28;20050;-60
2023/01/21 01:11:12;;;;;;;62.30;19.67;;;-2.10;80.10;;;;;;5019950;28;20095;-60
2023/01/21 01:13:39;;;;;;;39.95;19.00;;;-2.00;80.00;;;;;;5023167;28;20493;-60
2023/01/21 01:16:05;;;;;;;62.80;20.30;;;-2.00;80.20;;;;;;5022425;28;20043;-59
2023/01/21 01:18:34;;;;;;;70.60;19.65;;;-2.00;80.40;;;;;;5022305;28;20589;-60
2023/01/21 01:21:00;;;;;;;83.93;19.70;;;-2.00;80.70;;;;;;5023510;28;20068;-60
2023/01/21 01:23:26;;;;;;;52.30;17.15;;;-1.90;80.50;;;;;;5024682;28;20501;-59
2023/01/21 01:26:04;;;;;;;91.82;19.33;;;-1.90;80.40;;;;;;5021916;28;20041;-60
2023/01/21 01:28:30;;;;;;;78.63;19.95;;;-2.00;80.60;;;;;;5023561;28;20037;-60
2023/01/21 01:30:56;;;;;;;67.60;18.90;;;-2.00;80.40;;;;;;5023244;28;20026;-60
2023/01/21 01:33:22;;;;;;;39.20;18.55;;;-2.00;81.40;;;;;;5028238;28;20044;-59
2023/01/21 01:35:48;;;;;;;48.72;19.33;;;-2.00;80.80;;;;;;5025288;28;20081;-59
2023/01/21 01:38:15;;;;;;;181.13;21.52;;;-2.00;81.00;;;;;;5026219;28;20124;-62
2023/01/21 01:40:41;;;;;;;98.70;21.20;;;-2.00;81.30;;;;;;5023921;28;20041;-62
2023/01/21 01:43:22;;;;;;;240.45;25.95;;;-2.00;81.10;;;;;;5026362;28;20045;-61
2023/01/21 01:45:48;;;;;;;145.55;19.98;;;-2.00;81.30;;;;;;5024284;28;20283;-62
2023/01/21 01:48:34;;;;;;;118.95;20.48;;;-2.00;80.90;;;;;;5026269;28;20061;-61
2023/01/21 01:51:02;;;;;;;135.52;20.67;;;-2.00;81.30;;;;;;5024610;28;20033;-61
2023/01/21 01:53:30;;;;;;;40.40;18.27;;;-2.10;80.90;;;;;;5026824;28;20516;-61
2023/01/21 01:55:57;;;;;;;54.55;19.08;;;-2.10;81.20;;;;;;5024810;28;20033;-58
2023/01/21 01:58:23;;;;;;;94.35;19.80;;;-2.10;81.50;;;;;;5025412;28;20025;-61
2023/01/21 02:00:49;;;;;;;45.28;18.60;;;-2.10;81.60;;;;;;5024574;28;20038;-60
2023/01/21 02:06:01;;;;;;;61.40;19.35;;;-2.00;81.80;;;;;;5026331;28;20041;-62
2023/01/21 02:08:28;;;;;;;71.05;21.17;;;-2.00;81.70;;;;;;5018005;28;20044;-60
2023/01/21 02:10:55;;;;;;;60.47;20.67;;;-1.90;81.60;;;;;;5019678;28;20037;-61
2023/01/21 02:13:26;;;;;;;72.28;21.00;;;-1.90;81.60;;;;;;5019205;28;20034;-61
2023/01/21 02:16:00;;;;;;;70.15;20.63;;;-1.80;81.80;;;;;;5024866;28;20109;-59
2023/01/21 02:18:54;;;;;;;81.00;22.95;;;-1.80;81.60;;;;;;5025147;28;20095;-60
2023/01/21 02:21:35;;;;;;;44.53;19.92;;;-1.80;81.90;;;;;;5024478;28;20357;-59
2023/01/21 02:24:10;;;;;;;91.78;19.92;;;-1.80;81.60;;;;;;5026170;28;20056;-59
2023/01/21 02:27:00;;;;;;;123.32;23.92;;;-1.80;81.60;;;;;;5024880;28;20384;-60
2023/01/21 02:29:31;;;;;;;73.32;20.08;;;-1.70;81.40;;;;;;5024157;28;20295;-59
2023/01/21 02:32:05;;;;;;;58.15;20.17;;;-1.80;81.30;;;;;;5022486;28;20033;-59
2023/01/21 02:34:34;;;;;;;43.00;18.30;;;-1.70;81.10;;;;;;5025756;28;20133;-57
2023/01/21 02:37:29;;;;;;;39.85;19.92;;;-1.70;81.10;;;;;;5026115;28;20103;-59
2023/01/21 02:40:03;;;;;;;57.38;18.95;;;-1.70;81.10;;;;;;4970597;28;20073;-61
2023/01/21 02:42:34;;;;;;;65.07;20.63;;;-1.70;81.40;;;;;;5019568;28;20037;-61
2023/01/21 02:45:06;;;;;;;41.45;19.58;;;-1.70;81.40;;;;;;5023022;28;20029;-61
2023/01/21 02:47:40;;;;;;;47.65;19.23;;;-1.70;81.40;;;;;;5023557;28;20045;-61
2023/01/21 02:50:11;;;;;;;;;;;-1.60;81.40;;;;;;5024645;28;20051;-60
2023/01/21 02:52:36;;;;;;;63.35;19.70;;;-1.50;82.20;;;;;;5022338;28;19913;-61
2023/01/21 02:55:03;;;;;;;90.07;21.45;;;-1.50;81.00;;;;;;5026012;28;20125;-61
2023/01/21 02:57:28;;;;;;;51.38;20.67;;;-1.50;80.90;;;;;;5014783;28;20029;-60
2023/01/21 02:59:55;;;;;;;41.08;20.75;;;-1.50;80.80;;;;;;5022789;28;20033;-58
2023/01/21 03:02:30;;;;;;;162.55;23.13;;;-1.50;80.80;;;;;;5022128;28;20033;-60
2023/01/21 03:05:11;;;;;;;64.88;20.50;;;-1.50;80.90;;;;;;5023368;28;20309;-60
2023/01/21 03:08:03;;;;;;;46.78;20.23;;;-1.50;80.70;;;;;;5020098;28;20049;-61
2023/01/21 03:10:39;;;;;;;80.07;20.35;;;-1.50;81.00;;;;;;5019741;28;20583;-58
2023/01/21 03:19:04;;;;;;;44.38;19.40;;;-1.60;80.50;;;;;;5022066;28;20052;-61
2023/01/21 03:21:31;;;;;;;41.53;20.67;;;-1.60;80.60;;;;;;5018717;28;20040;-60
2023/01/21 03:23:58;;;;;;;112.30;21.98;;;-1.60;80.80;;;;;;5020614;28;20029;-61
2023/01/21 03:26:33;;;;;;;144.93;21.83;;;-1.60;81.00;;;;;;5024241;28;20045;-61
2023/01/21 03:29:13;;;;;;;194.80;24.15;;;-1.60;81.10;;;;;;5015805;28;20132;-59
2023/01/21 03:31:42;;;;;;;174.50;22.75;;;-1.60;80.60;;;;;;5020637;28;20033;-58
2023/01/21 03:34:10;;;;;;;101.50;21.58;;;-1.70;80.50;;;;;;5023670;28;20488;-59
2023/01/21 03:36:54;;;;;;;72.50;20.52;;;-1.80;80.40;;;;;;5024390;28;20386;-60
2023/01/21 03:39:43;;;;;;;123.70;20.63;;;-1.90;80.70;;;;;;5016271;28;20039;-61
2023/01/21 03:42:09;;;;;;;175.68;23.45;;;-1.90;81.10;;;;;;5015878;28;20526;-59
2023/01/21 03:44:35;;;;;;;147.57;23.15;;;-2.00;81.00;;;;;;5017799;28;20042;-56
2023/01/21 03:47:10;;;;;;;74.50;20.30;;;-2.00;81.10;;;;;;5019933;28;20050;-60
2023/01/21 03:49:54;;;;;;;;;;;-2.00;82.50;;;;;;5024168;28;20042;-61
2023/01/21 03:52:23;;;;;;;91.60;22.17;;;-2.00;82.50;;;;;;5022930;28;19921;-59
2023/01/21 03:54:48;;;;;;;156.48;21.70;;;-2.00;81.60;;;;;;5021385;28;20041;-59
2023/01/21 03:57:14;;;;;;;96.28;21.35;;;-2.00;81.70;;;;;;5024630;28;20098;-59
2023/01/21 03:59:40;;;;;;;103.55;22.95;;;-2.10;81.70;;;;;;5018088;28;20033;-62
2023/01/21 04:02:05;;;;;;;38.67;19.55;;;-2.10;81.80;;;;;;5037114;28;20435;-59
2023/01/21 04:04:31;;;;;;;47.50;20.52;;;-2.10;82.00;;;;;;5024260;28;20037;-60
2023/01/21 04:06:56;;;;;;;71.20;20.95;;;-2.10;82.30;;;;;;5024548;28;20033;-61
2023/01/21 04:09:22;;;;;;;98.78;23.13;;;-2.10;82.50;;;;;;5023814;28;20090;-62
2023/01/21 04:11:48;;;;;;;106.00;24.15;;;-2.10;82.70;;;;;;5020521;28;20468;-60
2023/01/21 04:14:13;;;;;;;42.78;21.10;;;-2.00;82.60;;;;;;5019424;28;20059;-61
2023/01/21 04:16:39;;;;;;;81.35;23.98;;;-2.00;82.60;;;;;;5014434;28;20519;-62
2023/01/21 04:19:04;;;;;;;141.05;25.55;;;-2.00;82.50;;;;;;5022498;28;20439;-57
2023/01/21 04:21:30;;;;;;;57.67;22.15;;;-2.00;82.50;;;;;;5020110;28;20048;-59
2023/01/21 04:23:56;;;;;;;74.43;22.67;;;-2.00;82.60;;;;;;5021394;28;20089;-61
2023/01/21 04:26:21;;;;;;;69.35;21.42;;;-2.00;82.50;;;;;;5020446;28;20041;-58
2023/01/21 04:28:47;;;;;;;78.70;22.05;;;-1.90;82.50;;;;;;5022794;28;20493;-59
2023/01/21 04:31:13;;;;;;;63.20;21.13;;;-1.90;82.50;;;;;;5014459;28;20087;-59
2023/01/21 04:33:38;;;;;;;64.93;21.23;;;-1.90;82.30;;;;;;5020722;28;20099;-58
2023/01/21 04:36:04;;;;;;;110.18;22.98;;;-1.90;82.10;;;;;;5018727;28;20039;-59
2023/01/21 04:38:30;;;;;;;80.57;20.48;;;-2.00;81.80;;;;;;5022009;28;20065;-60
2023/01/21 04:40:55;;;;;;;246.98;26.02;;;-2.00;81.60;;;;;;5018977;28;20129;-60
2023/01/21 04:43:21;;;;;;;231.50;25.65;;;-2.10;81.60;;;;;;5017041;28;20429;-60
2023/01/21 04:45:46;;;;;;;115.88;21.73;;;-2.10;81.70;;;;;;5017274;28;20029;-60
2023/01/21 04:48:12;;;;;;;45.08;20.42;;;-2.10;81.70;;;;;;5021052;28;21733;-57
2023/01/21 04:50:37;;;;;;;257.30;25.00;;;-2.10;81.70;;;;;;5017311;28;20037;-58
2023/01/21 04:53:03;;;;;;;128.38;22.58;;;-2.20;82.00;;;;;;5017161;28;20063;-59
2023/01/21 04:55:29;;;;;;;74.50;19.42;;;-2.20;81.80;;;;;;5015545;28;20618;-60
2023/01/21 04:57:54;;;;;;;184.10;24.08;;;-2.30;81.60;;;;;;5021620;28;20037;-59
2023/01/21 05:00:20;;;;;;;36.75;17.80;;;-2.30;81.80;;;;;;5019003;28;20086;-56
2023/01/21 05:02:46;;;;;;;39.72;19.80;;;-2.40;81.80;;;;;;5022074;28;20049;-56
2023/01/21 05:05:11;;;;;;;235.50;25.58;;;-2.40;82.10;;;;;;5023316;28;20053;-60
2023/01/21 05:07:37;;;;;;;45.80;19.35;;;-2.40;82.30;;;;;;5019520;28;20064;-61
2023/01/21 05:10:03;;;;;;;112.20;20.23;;;-2.30;82.50;;;;;;5020658;28;20057;-57
2023/01/21 05:12:28;;;;;;;147.55;21.95;;;-2.30;82.50;;;;;;5017461;28;20033;-57
2023/01/21 05:14:56;;;;;;;146.82;21.23;;;-2.30;82.10;;;;;;5025745;28;20037;-59
2023/01/21 05:17:22;;;;;;;133.68;21.45;;;-2.10;81.90;;;;;;5036850;28;20460;-59
2023/01/21 05:19:49;;;;;;;85.47;20.17;;;-2.30;81.50;;;;;;5023578;28;20531;-58
2023/01/21 05:22:15;;;;;;;156.57;22.25;;;-2.30;81.40;;;;;;5021684;28;21788;-61
2023/01/21 05:24:41;;;;;;;61.25;20.75;;;-2.40;81.40;;;;;;5022712;28;20041;-60
2023/01/21 05:27:07;;;;;;;136.48;20.95;;;-2.40;81.40;;;;;;5019518;28;20095;-59
2023/01/21 05:29:33;;;;;;;145.63;21.10;;;-2.50;81.40;;;;;;5023267;28;20029;-61
2023/01/21 05:31:58;;;;;;;188.52;23.73;;;-2.50;81.60;;;;;;5022514;28;20044;-59
2023/01/21 05:34:24;;;;;;;106.93;22.42;;;-2.50;81.60;;;;;;5023315;28;20594;-58
2023/01/21 05:36:49;;;;;;;258.17;23.50;;;-2.60;81.60;;;;;;5023871;28;20033;-62
2023/01/21 05:39:15;;;;;;;112.93;20.50;;;-2.60;81.60;;;;;;5035877;28;20043;-62
2023/01/21 05:41:41;;;;;;;88.55;20.92;;;-2.70;81.60;;;;;;5024599;28;20155;-60
2023/01/21 05:44:08;;;;;;;45.97;20.00;;;-2.70;81.80;;;;;;5019779;28;20397;-61
2023/01/21 05:46:34;;;;;;;171.27;23.73;;;-2.70;82.00;;;;;;5015947;28;20489;-59
2023/01/21 05:49:00;;;;;;;230.15;25.58;;;-2.80;82.10;;;;;;5022407;28;20033;-59
2023/01/21 05:51:25;;;;;;;130.50;21.83;;;-2.80;82.30;;;;;;5022339;28;20045;-59
2023/01/21 05:53:51;;;;;;;233.35;27.85;;;-2.80;82.20;;;;;;5023406;28;20037;-60
2023/01/21 05:56:16;;;;;;;301.83;27.48;;;-2.80;82.20;;;;;;5026858;28;20041;-59
2023/01/21 05:58:42;;;;;;;239.82;26.55;;;-2.80;82.10;;;;;;5024263;28;20493;-61
2023/01/21 06:01:09;;;;;;;175.25;24.15;;;-2.90;82.10;;;;;;5021031;28;20179;-59
2023/01/21 06:03:35;;;;;;;102.28;20.52;;;-2.90;82.00;;;;;;5019055;28;20308;-61
2023/01/21 06:06:00;;;;;;;136.60;22.00;;;-3.00;82.10;;;;;;5025074;28;20546;-60
2023/01/21 06:08:26;;;;;;;172.48;22.88;;;-2.90;82.30;;;;;;5015228;28;20120;-59
2023/01/21 06:10:55;;;;;;;160.63;22.13;;;-3.00;82.40;;;;;;5015345;28;20036;-61
2023/01/21 06:13:21;;;;;;;53.90;19.15;;;-3.00;82.40;;;;;;5021474;28;20507;-60
2023/01/21 06:15:46;;;;;;;57.25;20.35;;;-3.00;82.30;;;;;;5021962;28;20091;-60
2023/01/21 06:18:12;;;;;;;79.53;21.73;;;-3.00;82.30;;;;;;5021573;28;20700;-61
2023/01/21 06:20:37;;;;;;;68.18;19.95;;;-3.00;82.60;;;;;;5020708;28;20541;-61
2023/01/21 06:23:04;;;;;;;52.85;21.13;;;-3.00;82.30;;;;;;5020166;28;20415;-61
2023/01/21 06:25:30;;;;;;;56.75;20.58;;;-3.00;82.30;;;;;;5022042;28;20037;-59
2023/01/21 06:27:57;;;;;;;55.92;21.08;;;-3.00;82.30;;;;;;5018505;28;20052;-61
2023/01/21 06:30:24;;;;;;;46.00;19.52;;;-3.00;82.30;;;;;;5020299;28;20033;-62
2023/01/21 06:32:50;;;;;;;76.15;21.50;;;-3.00;82.50;;;;;;5018439;28;20103;-59
2023/01/21 06:35:16;;;;;;;89.03;22.27;;;-2.90;82.50;;;;;;5021738;28;20041;-59
2023/01/21 06:37:43;;;;;;;62.80;21.10;;;-2.90;82.40;;;;;;5023772;28;20037;-60
2023/01/21 06:40:09;;;;;;;56.40;20.77;;;-2.90;82.10;;;;;;5017339;28;20033;-60
2023/01/21 06:42:35;;;;;;;53.70;21.40;;;-2.90;82.10;;;;;;5013967;28;21257;-61
2023/01/21 06:45:00;;;;;;;48.63;21.77;;;-2.90;82.30;;;;;;5024226;28;20174;-60
2023/01/21 06:47:26;;;;;;;49.38;20.95;;;-2.90;82.30;;;;;;5020238;28;20091;-58
2023/01/21 06:49:51;;;;;;;48.83;21.67;;;-2.90;82.30;;;;;;5019509;28;20752;-60
2023/01/21 06:52:17;;;;;;;62.65;23.40;;;-2.90;82.20;;;;;;5021430;28;20574;-59
2023/01/21 06:54:43;;;;;;;58.63;23.10;;;-2.90;82.30;;;;;;5018925;28;20481;-59
2023/01/21 06:57:09;;;;;;;65.20;23.60;;;-2.80;82.40;;;;;;5037899;28;20087;-60
2023/01/21 06:59:34;;;;;;;54.72;23.05;;;-2.80;82.60;;;;;;5017773;28;20452;-58
2023/01/21 07:02:00;;;;;;;62.90;24.52;;;-2.80;82.60;;;;;;5023018;28;20053;-58
2023/01/21 07:04:26;;;;;;;60.83;24.27;;;-2.70;82.70;;;;;;5020848;28;20493;-59
2023/01/21 07:06:52;;;;;;;62.72;25.30;;;-2.70;82.60;;;;;;5021480;28;20044;-60
2023/01/21 07:09:18;;;;;;;59.60;25.77;;;-2.60;82.60;;;;;;5018293;28;20037;-60
2023/01/21 07:11:43;;;;;;;54.47;23.25;;;-2.60;82.50;;;;;;5012279;28;21373;-60
2023/01/21 07:14:09;;;;;;;56.58;23.70;;;-2.60;82.30;;;;;;5019966;28;20035;-59
2023/01/21 07:16:35;;;;;;;57.50;23.55;;;-2.50;82.10;;;;;;5021776;28;20030;-60
2023/01/21 07:19:01;;;;;;;54.28;22.70;;;-2.50;82.00;;;;;;5023308;28;20127;-59
2023/01/21 07:21:26;;;;;;;52.67;22.85;;;-2.50;81.90;;;;;;5018607;28;20032;-60
2023/01/21 07:23:52;;;;;;;47.88;21.88;;;-2.50;81.90;;;;;;5019811;28;20049;-59
2023/01/21 07:26:18;;;;;;;50.10;22.75;;;-2.50;81.90;;;;;;5019461;28;20068;-61
2023/01/21 07:28:44;;;;;;;43.90;20.58;;;-2.50;82.00;;;;;;5022909;28;20049;-59
2023/01/21 07:31:10;;;;;;;44.90;21.05;;;-2.40;82.10;;;;;;5019900;28;20037;-61
2023/01/21 07:33:35;;;;;;;44.58;20.50;;;-2.40;82.10;;;;;;5013051;28;20038;-60
2023/01/21 07:36:01;;;;;;;45.60;21.30;;;-2.30;82.30;;;;;;5016467;28;20527;-61
2023/01/21 07:38:27;;;;;;;50.72;23.08;;;-2.30;83.20;;;;;;5017550;28;20671;-61
2023/01/21 07:40:52;;;;;;;49.55;21.90;;;-2.30;82.30;;;;;;5020251;28;20497;-61
2023/01/21 07:43:18;;;;;;;42.15;19.83;;;-2.20;82.30;;;;;;5018972;28;20029;-59
2023/01/21 07:45:44;;;;;;;43.90;19.60;;;-2.20;82.30;;;;;;5016679;28;20038;-60
2023/01/21 07:48:10;;;;;;;42.30;20.10;;;-2.20;83.20;;;;;;5023272;28;20057;-60
2023/01/21 07:50:36;;;;;;;42.10;20.20;;;-2.20;82.40;;;;;;5022131;28;20029;-61
2023/01/21 07:53:01;;;;;;;42.92;20.55;;;-2.20;82.60;;;;;;5015741;28;20072;-60
2023/01/21 07:55:28;;;;;;;42.97;19.48;;;-2.20;82.60;;;;;;5021628;28;20551;-60
2023/01/21 07:57:57;;;;;;;41.33;19.77;;;-2.20;82.80;;;;;;5023116;28;20048;-59
2023/01/21 08:00:25;;;;;;;43.92;19.70;;;-2.20;83.10;;;;;;5013797;28;20048;-61
2023/01/21 08:02:55;;;;;;;40.10;18.88;;;-2.20;83.00;;;;;;5014595;28;20109;-61
2023/01/21 08:05:22;;;;;;;41.30;17.75;;;-2.10;83.10;;;;;;5002301;28;20500;-60
2023/01/21 08:07:48;;;;;;;40.47;19.45;;;-2.10;83.30;;;;;;5018518;28;20052;-58
2023/01/21 08:10:14;;;;;;;38.40;18.65;;;-2.10;83.90;;;;;;5015802;28;20034;-60
2023/01/21 08:12:40;;;;;;;37.35;17.98;;;-2.10;83.80;;;;;;5015442;28;20166;-61
2023/01/21 08:15:07;;;;;;;33.15;16.15;;;-2.00;83.90;;;;;;5017692;28;20489;-59
2023/01/21 08:17:36;;;;;;;33.38;16.63;;;-2.00;83.70;;;;;;5019845;28;20048;-59
2023/01/21 08:20:01;;;;;;;34.17;16.60;;;-1.90;83.90;;;;;;5021065;28;20077;-61
2023/01/21 08:22:27;;;;;;;34.20;15.93;;;-1.90;83.70;;;;;;5017920;28;20045;-61
2023/01/21 08:24:52;;;;;;;30.90;15.20;;;-1.90;83.70;;;;;;5019251;28;20457;-61
2023/01/21 08:27:18;;;;;;;31.13;15.93;;;-1.80;83.70;;;;;;5024123;28;20113;-60
2023/01/21 08:29:43;;;;;;;36.03;17.60;;;-1.80;83.70;;;;;;5019798;28;20615;-60
2023/01/21 08:32:09;;;;;;;37.00;16.75;;;-1.80;83.80;;;;;;5015576;28;20042;-60
2023/01/21 08:34:35;;;;;;;31.50;15.35;;;-1.70;83.50;;;;;;5017316;28;20034;-61
2023/01/21 08:37:00;;;;;;;34.65;16.58;;;-1.70;83.40;;;;;;5018046;28;20374;-61
2023/01/21 08:39:26;;;;;;;31.88;15.52;;;-1.70;83.80;;;;;;5026290;28;20544;-61
2023/01/21 08:41:51;;;;;;;29.90;14.82;;;-1.70;83.50;;;;;;5030650;28;20116;-58
2023/01/21 08:44:17;;;;;;;30.50;14.55;;;-1.60;83.50;;;;;;5025312;28;20306;-59
2023/01/21 08:46:42;;;;;;;30.77;15.45;;;-1.60;83.50;;;;;;5023022;28;20038;-60
2023/01/21 08:49:08;;;;;;;28.27;14.77;;;-1.50;83.70;;;;;;5018730;28;20139;-58
2023/01/21 08:51:34;;;;;;;32.13;14.98;;;-1.50;83.90;;;;;;5020941;28;20049;-60
2023/01/21 08:53:59;;;;;;;29.15;15.35;;;-1.40;84.00;;;;;;5019847;28;20025;-59
2023/01/21 08:56:25;;;;;;;32.13;15.70;;;-1.40;84.20;;;;;;5022351;28;20045;-56
2023/01/21 08:58:55;;;;;;;29.52;15.82;;;-1.30;83.90;;;;;;5024252;28;20485;-60
2023/01/21 09:01:22;;;;;;;30.52;14.85;;;-1.20;83.90;;;;;;5022019;28;20513;-59
2023/01/21 09:03:48;;;;;;;34.22;15.90;;;-1.20;83.70;;;;;;5023550;28;20129;-58
2023/01/21 09:06:13;;;;;;;30.40;16.15;;;-1.10;83.70;;;;;;5023596;28;20730;-56
2023/01/21 09:08:39;;;;;;;32.40;16.25;;;-1.10;83.50;;;;;;5017440;28;20044;-59
2023/01/21 09:11:05;;;;;;;32.22;16.67;;;-1.00;83.20;;;;;;5015779;28;20075;-59
2023/01/21 09:13:34;;;;;;;33.20;16.27;;;-1.00;83.40;;;;;;5017011;28;20060;-60
2023/01/21 09:16:00;;;;;;;30.67;16.05;;;-1.00;83.20;;;;;;5017999;28;20048;-59
2023/01/21 09:18:26;;;;;;;32.35;15.65;;;-1.00;83.30;;;;;;5019184;28;20034;-59
2023/01/21 09:20:51;;;;;;;33.22;16.05;;;-1.00;83.60;;;;;;5023542;28;20041;-61
2023/01/21 09:23:23;;;;;;;37.50;16.15;;;-0.90;83.60;;;;;;5025219;28;20489;-60
2023/01/21 09:25:50;;;;;;;30.58;15.13;;;-0.90;83.70;;;;;;5022412;28;20033;-60
2023/01/21 09:28:16;;;;;;;33.88;16.92;;;-0.80;83.90;;;;;;5019698;28;20037;-61
2023/01/21 09:30:42;;;;;;;31.88;16.25;;;-0.70;84.00;;;;;;5015964;28;20527;-59
2023/01/21 09:33:08;;;;;;;35.53;18.35;;;-0.70;84.00;;;;;;5019962;28;20033;-60
2023/01/21 09:35:33;;;;;;;35.60;17.52;;;-0.60;84.20;;;;;;5019571;28;20615;-60
2023/01/21 09:37:59;;;;;;;32.83;16.73;;;-0.60;83.90;;;;;;5021055;28;20038;-60
2023/01/21 09:40:24;;;;;;;33.65;16.25;;;-0.60;83.70;;;;;;5022550;28;20042;-60
2023/01/21 09:42:50;;;;;;;32.08;16.85;;;-0.60;83.70;;;;;;5019792;28;21374;-61
2023/01/21 09:45:18;;;;;;;31.30;16.10;;;-0.50;83.90;;;;;;5012372;28;20404;-60
2023/01/21 09:47:46;;;;;;;33.85;17.58;;;-0.50;84.20;;;;;;5019401;28;20073;-61
2023/01/21 09:50:13;;;;;;;34.42;16.80;;;-0.40;84.20;;;;;;5022473;28;20044;-60
2023/01/21 09:52:42;;;;;;;30.60;15.82;;;-0.40;84.10;;;;;;5022861;28;20025;-61
2023/01/21 09:55:15;;;;;;;33.42;17.27;;;-0.30;84.10;;;;;;5015542;28;20052;-57
2023/01/21 09:58:12;;;;;;;38.33;17.40;;;-0.30;84.30;;;;;;5018395;28;20041;-60
2023/01/21 10:01:05;;;;;;;32.65;16.95;;;-0.20;84.50;;;;;;5017490;28;20406;-61
2023/01/21 10:04:01;;;;;;;36.85;18.15;;;-0.20;84.10;;;;;;5021860;28;20591;-59
2023/01/21 10:06:37;;;;;;;41.70;19.42;;;-0.10;84.10;;;;;;5016152;28;20049;-59
2023/01/21 10:09:35;;;;;;;59.47;26.35;;;0.00;83.70;;;;;;5023915;28;20972;-59
2023/01/21 10:12:13;;;;;;;71.93;31.25;;;0.00;83.90;;;;;;5006164;28;20572;-60
2023/01/21 10:14:39;;;;;;;47.92;22.98;;;0.00;83.90;;;;;;5014581;28;20046;-61
2023/01/21 10:17:35;;;;;;;40.13;20.08;;;0.10;83.70;;;;;;5021496;28;20396;-60
2023/01/21 10:20:26;;;;;;;33.95;16.30;;;0.20;83.70;;;;;;5019134;28;20052;-61
2023/01/21 10:23:01;;;;;;;30.23;16.20;;;0.20;83.70;;;;;;5019123;28;20121;-60
2023/01/21 10:25:29;;;;;;;;;;;0.20;83.40;;;;;;5023424;28;20044;-61
2023/01/21 10:28:02;;;;;;;30.88;15.23;;;0.30;84.10;;;;;;5021970;28;19925;-60
2023/01/21 10:30:37;;;;;;;33.85;15.65;;;0.30;83.20;;;;;;5017222;28;20041;-59
2023/01/21 10:33:05;;;;;;;31.70;15.75;;;0.30;83.20;;;;;;5019959;28;20033;-59
2023/01/21 10:35:41;;;;;;;28.73;14.90;;;0.40;83.10;;;;;;5018756;28;20523;-57
2023/01/21 10:38:25;;;;;;;34.78;15.90;;;0.40;83.00;;;;;;5020061;28;20033;-60
2023/01/21 10:41:10;;;;;;;31.00;15.07;;;0.40;83.10;;;;;;5015680;28;20048;-60
2023/01/21 10:44:11;;;;;;;;;;;0.50;83.00;;;;;;5023621;28;20046;-60
2023/01/21 10:46:50;;;;;;;31.75;14.20;;;0.50;83.50;;;;;;4944751;28;20611;-59
2023/01/21 10:49:25;;;;;;;31.17;15.10;;;0.50;82.70;;;;;;5010857;28;20069;-59
2023/01/21 10:52:09;;;;;;;29.60;15.13;;;0.50;82.60;;;;;;5019502;28;20037;-58
2023/01/21 10:54:56;;;;;;;32.35;15.98;;;0.60;82.70;;;;;;5016030;28;20421;-59
2023/01/21 10:57:51;;;;;;;32.38;14.73;;;0.60;83.00;;;;;;5018669;28;20108;-59
2023/01/21 11:00:31;;;;;;;29.02;14.05;;;0.60;82.90;;;;;;5021223;28;20049;-59
2023/01/21 11:03:02;;;;;;;26.08;13.40;;;0.60;82.60;;;;;;5019616;28;20034;-60
2023/01/21 11:05:30;;;;;;;28.77;14.13;;;0.70;82.60;;;;;;5016801;28;20060;-61
2023/01/21 11:07:56;;;;;;;26.80;13.48;;;0.70;82.50;;;;;;5012892;28;20397;-62
2023/01/21 11:10:25;;;;;;;28.75;14.93;;;0.70;82.50;;;;;;5017919;28;20104;-60
2023/01/21 11:12:53;;;;;;;30.88;14.93;;;0.70;82.60;;;;;;5007128;28;20041;-60
2023/01/21 11:15:20;;;;;;;31.80;14.93;;;0.80;82.60;;;;;;5017632;28;20123;-58
2023/01/21 11:17:48;;;;;;;28.95;14.20;;;0.80;82.50;;;;;;5022823;28;20203;-59
2023/01/21 11:20:41;;;;;;;27.60;14.60;;;0.90;82.50;;;;;;5021825;28;20128;-59
2023/01/21 11:23:25;;;;;;;26.77;13.80;;;0.90;82.40;;;;;;5021411;28;20559;-60
2023/01/21 11:25:50;;;;;;;28.90;13.77;;;0.90;82.30;;;;;;5022955;28;20560;-60
2023/01/21 11:28:29;;;;;;;27.30;13.65;;;0.90;82.10;;;;;;5023675;28;20072;-61
2023/01/21 11:31:02;;;;;;;26.83;14.02;;;1.00;82.10;;;;;;5020440;28;20033;-61
2023/01/21 11:33:28;;;;;;;24.63;13.50;;;1.00;82.00;;;;;;5024152;28;20524;-61
2023/01/21 11:35:55;;;;;;;29.50;14.52;;;1.00;81.80;;;;;;5024232;28;20137;-60
2023/01/21 11:38:41;;;;;;;28.15;14.05;;;1.00;81.80;;;;;;5022933;28;20042;-61
2023/01/21 11:41:16;;;;;;;26.25;14.10;;;1.00;81.70;;;;;;5021112;28;20033;-59
2023/01/21 11:43:46;;;;;;;;;;;1.10;81.40;;;;;;5025656;28;20448;-61
2023/01/21 11:46:36;;;;;;;26.80;12.25;;;1.10;81.30;;;;;;5020436;28;20020;-60
2023/01/21 11:49:06;;;;;;;26.05;11.38;;;1.10;80.90;;;;;;5024233;28;20141;-59
2023/01/21 11:51:36;;;;;;;26.77;12.93;;;1.00;80.80;;;;;;5019418;28;20033;-61
2023/01/21 11:54:12;;;;;;;22.52;12.82;;;1.10;80.80;;;;;;5018601;28;20041;-60
2023/01/21 11:56:39;;;;;;;23.05;12.52;;;1.00;80.60;;;;;;5022204;28;20060;-59
2023/01/21 11:59:24;;;;;;;25.92;13.85;;;1.00;80.70;;;;;;5016977;28;20033;-61
2023/01/21 12:02:18;;;;;;;26.88;13.32;;;1.10;80.80;;;;;;5015115;28;20359;-59
2023/01/21 12:04:48;;;;;;;25.88;13.32;;;1.10;80.90;;;;;;5012795;28;20119;-58
2023/01/21 12:07:23;;;;;;;27.73;13.48;;;1.10;80.90;;;;;;5019666;28;20041;-59
2023/01/21 12:10:18;;;;;;;25.45;13.85;;;1.10;81.20;;;;;;5016939;28;20034;-60
2023/01/21 12:13:01;;;;;;;26.33;13.30;;;1.10;81.30;;;;;;5009152;28;20087;-59
2023/01/21 12:15:53;;;;;;;25.33;13.70;;;1.10;81.20;;;;;;5016363;28;20870;-60
2023/01/21 12:18:34;;;;;;;30.58;14.68;;;1.00;81.30;;;;;;5019026;28;20079;-61
2023/01/21 12:21:04;;;;;;;33.47;14.05;;;1.10;81.50;;;;;;5019318;28;20409;-58
2023/01/21 12:23:57;;;;;;;28.02;13.18;;;1.00;81.30;;;;;;5021861;28;20037;-60
2023/01/21 12:26:32;;;;;;;25.90;13.32;;;0.90;81.90;;;;;;5012285;28;20041;-60
2023/01/21 12:29:31;;;;;;;25.63;12.68;;;0.90;81.90;;;;;;5016389;28;20543;-60
2023/01/21 12:32:27;;;;;;;24.48;13.15;;;1.00;82.30;;;;;;5016052;28;20033;-61
2023/01/21 12:35:01;;;;;;;26.33;14.15;;;1.00;82.40;;;;;;5020746;28;20038;-60
2023/01/21 12:37:53;;;;;;;19.25;9.98;;;0.90;82.80;;;;;;5025465;28;20520;-57
2023/01/21 12:40:26;;;;;;;24.45;12.45;;;1.00;82.10;;;;;;5021398;28;20064;-59
2023/01/21 12:42:58;;;;;;;24.80;13.10;;;1.00;82.10;;;;;;5023913;28;20113;-61
2023/01/21 12:45:42;;;;;;;27.25;15.15;;;1.00;82.30;;;;;;5023031;28;20386;-60
2023/01/21 12:48:31;;;;;;;28.17;13.02;;;1.00;82.60;;;;;;5021096;28;20180;-60
2023/01/21 12:51:08;;;;;;;22.05;12.50;;;1.00;82.50;;;;;;5021581;28;20065;-60